Time;durP1;ratioP1;P1;durP2;ratioP2;P2;SDS_P1;SDS_P2;PMS_P1;PMS_P2;Temp;Humidity;BMP_temperature;BMP_pressure;BME280_temperature;BME280_humidity;BME280_pressure;Samples;Min_cycle;Max_cycle;Signal;HPM_P1;HPM_P2
2022/04/29 00:01:06;;;;;;;11.43;5.23;;;12.10;54.90;;;;;;5085005;28;20196;-39
2022/04/29 00:03:33;;;;;;;11.83;5.47;;;12.10;55.60;;;;;;5081364;28;20208;-41
2022/04/29 00:06:01;;;;;;;12.17;5.43;;;12.10;55.00;;;;;;5087248;28;20206;-42
2022/04/29 00:08:29;;;;;;;10.30;5.23;;;12.10;55.00;;;;;;5086694;28;20242;-40
2022/04/29 00:10:56;;;;;;;10.77;5.00;;;12.10;55.00;;;;;;5086353;28;20680;-41
2022/04/29 00:13:23;;;;;;;14.17;5.40;;;12.00;55.00;;;;;;5086341;28;20220;-40
2022/04/29 00:15:52;;;;;;;9.70;5.07;;;12.00;55.10;;;;;;5085911;28;20214;-41
2022/04/29 00:18:20;;;;;;;9.47;5.07;;;12.00;55.10;;;;;;5080974;28;20555;-42
2022/04/29 00:20:49;;;;;;;8.90;4.50;;;12.00;55.10;;;;;;5086833;28;20280;-43
2022/04/29 00:23:16;;;;;;;8.83;5.10;;;12.00;55.10;;;;;;5084207;28;20691;-41
2022/04/29 00:25:44;;;;;;;11.43;4.97;;;12.00;55.10;;;;;;5087853;28;20191;-38
2022/04/29 00:28:11;;;;;;;7.83;4.63;;;12.00;55.10;;;;;;5088810;28;20256;-40
2022/04/29 00:30:38;;;;;;;12.23;4.90;;;12.00;55.00;;;;;;5086546;28;20311;-41
2022/04/29 00:33:07;;;;;;;8.60;4.80;;;11.90;55.00;;;;;;5086538;28;20207;-40
2022/04/29 00:35:34;;;;;;;11.03;5.00;;;11.90;54.90;;;;;;5085779;28;20196;-43
2022/04/29 00:38:02;;;;;;;8.77;4.23;;;11.90;54.90;;;;;;5095382;28;20197;-38
2022/04/29 00:40:31;;;;;;;9.80;4.33;;;11.90;54.90;;;;;;5089009;28;20667;-39
2022/04/29 00:42:58;;;;;;;14.13;4.70;;;11.90;54.80;;;;;;5103070;28;20624;-40
2022/04/29 00:45:26;;;;;;;8.43;4.27;;;11.90;54.80;;;;;;5088739;28;20194;-40
2022/04/29 00:47:54;;;;;;;7.83;4.40;;;11.80;54.60;;;;;;5088932;28;20314;-41
2022/04/29 00:50:28;;;;;;;9.23;4.53;;;11.80;54.60;;;;;;5086913;28;20208;-40
2022/04/29 00:52:57;;;;;;;9.50;4.03;;;11.80;54.60;;;;;;5083297;28;20192;-38
2022/04/29 00:55:25;;;;;;;8.17;3.73;;;11.80;54.60;;;;;;5084702;28;20192;-40
2022/04/29 00:57:53;;;;;;;6.90;4.00;;;11.70;54.40;;;;;;5085896;28;20193;-38
2022/04/29 01:00:22;;;;;;;5.10;3.23;;;11.70;54.40;;;;;;5082740;28;20196;-38
2022/04/29 01:02:50;;;;;;;6.73;3.57;;;11.70;54.30;;;;;;5078862;28;20246;-38
2022/04/29 01:05:20;;;;;;;4.03;3.13;;;11.70;54.10;;;;;;5080736;28;20251;-40
2022/04/29 01:07:49;;;;;;;5.77;3.27;;;11.60;53.90;;;;;;5086160;28;20213;-39
2022/04/29 01:10:20;;;;;;;5.63;3.47;;;11.60;53.90;;;;;;5097456;28;20222;-39
2022/04/29 01:12:51;;;;;;;5.50;3.27;;;11.60;53.80;;;;;;5087390;28;20617;-42
2022/04/29 01:15:19;;;;;;;6.90;3.80;;;11.60;53.80;;;;;;5082294;28;20210;-39
2022/04/29 01:17:47;;;;;;;6.07;3.13;;;11.60;53.60;;;;;;5089267;28;20190;-41
2022/04/29 01:20:16;;;;;;;5.23;3.50;;;11.50;53.60;;;;;;5086561;28;20203;-42
2022/04/29 01:22:45;;;;;;;4.40;3.20;;;11.40;53.60;;;;;;5101622;28;20214;-41
2022/04/29 01:25:13;;;;;;;10.10;3.23;;;11.40;53.60;;;;;;5103703;28;20211;-40
2022/04/29 01:27:46;;;;;;;4.50;3.17;;;11.30;53.50;;;;;;5103276;28;20303;-39
2022/04/29 01:30:16;;;;;;;5.03;3.00;;;11.30;53.50;;;;;;5083397;28;20200;-43
2022/04/29 01:32:44;;;;;;;3.53;2.87;;;11.30;53.50;;;;;;5078225;28;20222;-39
2022/04/29 01:35:13;;;;;;;6.53;3.60;;;11.30;53.40;;;;;;5101410;28;20619;-39
2022/04/29 01:37:42;;;;;;;4.23;3.30;;;11.30;53.50;;;;;;5099522;28;20199;-41
2022/04/29 01:40:12;;;;;;;6.37;3.97;;;11.30;53.40;;;;;;5082388;28;20308;-40
2022/04/29 01:42:41;;;;;;;5.40;3.70;;;11.30;53.30;;;;;;5092697;28;20198;-44
2022/04/29 01:45:10;;;;;;;5.43;3.60;;;11.40;53.30;;;;;;5087185;28;20207;-41
2022/04/29 01:48:07;;;;;;;10.47;5.00;;;11.30;53.20;;;;;;5017329;28;20221;-38
2022/04/29 01:50:47;;;;;;;9.87;4.73;;;11.20;53.10;;;;;;5079636;28;20285;-43
2022/04/29 01:53:15;;;;;;;7.83;4.60;;;11.20;53.20;;;;;;5082605;28;20204;-42
2022/04/29 01:55:44;;;;;;;5.87;3.57;;;11.20;53.10;;;;;;5090850;28;20238;-42
2022/04/29 01:58:11;;;;;;;7.33;3.90;;;11.10;53.10;;;;;;5086194;28;20271;-46
2022/04/29 02:00:39;;;;;;;8.50;3.60;;;11.00;53.10;;;;;;5090233;28;20548;-46
2022/04/29 02:03:06;;;;;;;7.40;3.87;;;11.00;53.10;;;;;;5092087;28;20616;-46
2022/04/29 02:05:33;;;;;;;4.90;3.20;;;10.90;53.10;;;;;;5089142;28;20228;-46
2022/04/29 02:08:01;;;;;;;4.90;3.07;;;10.90;53.20;;;;;;5083463;28;20236;-48
2022/04/29 02:10:30;;;;;;;5.30;3.50;;;10.90;53.10;;;;;;5085573;28;20692;-46
2022/04/29 02:12:58;;;;;;;3.60;2.90;;;10.90;53.10;;;;;;5091534;28;20578;-48
2022/04/29 02:15:26;;;;;;;5.93;3.40;;;10.90;53.00;;;;;;5091726;28;20203;-45
2022/04/29 02:17:54;;;;;;;6.70;3.47;;;10.80;52.90;;;;;;5081053;28;20243;-47
2022/04/29 02:20:25;;;;;;;5.80;3.30;;;11.00;53.00;;;;;;5090269;28;20211;-45
2022/04/29 02:22:54;;;;;;;4.77;3.10;;;11.00;52.90;;;;;;5089591;28;20683;-46
2022/04/29 02:25:21;;;;;;;6.57;3.90;;;11.00;52.80;;;;;;5091112;28;20224;-43
2022/04/29 02:27:48;;;;;;;6.23;3.70;;;11.00;52.80;;;;;;5080782;28;20224;-45
2022/04/29 02:30:17;;;;;;;6.10;3.40;;;11.00;52.70;;;;;;5083024;28;20663;-43
2022/04/29 02:32:44;;;;;;;5.63;3.20;;;11.00;52.60;;;;;;5086654;28;20189;-42
2022/04/29 02:35:12;;;;;;;6.93;3.17;;;11.00;52.60;;;;;;5088713;28;20654;-43
2022/04/29 02:37:40;;;;;;;4.73;2.80;;;11.00;52.60;;;;;;5091589;28;20199;-42
2022/04/29 02:40:08;;;;;;;6.13;2.90;;;11.00;52.60;;;;;;5078719;28;20210;-48
2022/04/29 02:42:35;;;;;;;6.10;3.03;;;10.90;52.50;;;;;;5090392;28;20201;-45
2022/04/29 02:45:03;;;;;;;3.17;2.70;;;10.90;52.50;;;;;;5089478;28;20201;-38
2022/04/29 02:47:46;;;;;;;6.23;3.27;;;10.90;52.50;;;;;;5088178;28;20222;-47
2022/04/29 02:50:13;;;;;;;2.57;2.30;;;10.80;52.50;;;;;;5091001;28;20254;-43
2022/04/29 02:52:51;;;;;;;4.53;2.97;;;10.80;52.50;;;;;;5087498;28;20200;-45
2022/04/29 02:55:19;;;;;;;4.13;3.20;;;10.80;52.60;;;;;;5088775;28;20295;-42
2022/04/29 02:58:01;;;;;;;5.10;3.27;;;10.80;52.60;;;;;;5089411;28;20273;-42
2022/04/29 03:00:28;;;;;;;6.13;3.50;;;10.70;52.60;;;;;;5087835;28;20299;-39
2022/04/29 03:02:57;;;;;;;6.70;3.87;;;10.80;52.60;;;;;;5088507;28;20197;-41
2022/04/29 03:05:26;;;;;;;8.13;4.43;;;10.80;52.50;;;;;;5085471;28;20271;-46
2022/04/29 03:07:53;;;;;;;10.30;5.13;;;10.80;52.50;;;;;;5088673;28;20225;-41
2022/04/29 03:10:21;;;;;;;5.63;3.40;;;10.80;52.40;;;;;;5088352;28;20202;-46
2022/04/29 03:12:48;;;;;;;8.67;4.57;;;10.80;52.30;;;;;;5087276;28;20200;-42
2022/04/29 03:15:25;;;;;;;8.73;4.53;;;10.80;52.30;;;;;;5088563;28;20200;-43
2022/04/29 03:20:44;;;;;;;6.73;4.13;;;10.80;52.30;;;;;;5078124;28;20235;-41
2022/04/29 03:23:12;;;;;;;5.67;3.80;;;10.80;53.00;;;;;;5093935;28;20202;-39
2022/04/29 03:25:47;;;;;;;5.80;3.40;;;10.80;52.40;;;;;;5101613;28;20201;-44
2022/04/29 03:28:15;;;;;;;6.23;3.90;;;10.70;52.40;;;;;;5090390;28;20664;-43
2022/04/29 03:30:42;;;;;;;6.13;3.07;;;10.70;52.50;;;;;;5087142;28;20662;-43
2022/04/29 03:33:11;;;;;;;11.40;4.07;;;10.60;52.60;;;;;;5086508;28;20218;-45
2022/04/29 03:35:44;;;;;;;5.20;3.80;;;10.60;52.70;;;;;;5093701;28;20193;-40
2022/04/29 03:38:33;;;;;;;5.93;3.30;;;10.70;52.90;;;;;;5070088;28;20191;-41
2022/04/29 03:41:01;;;;;;;5.90;3.03;;;10.60;52.80;;;;;;5079231;28;20209;-45
2022/04/29 03:43:30;;;;;;;5.50;3.17;;;10.60;52.90;;;;;;5070811;28;20204;-39
2022/04/29 03:45:58;;;;;;;3.50;2.73;;;10.60;53.10;;;;;;5080395;28;20603;-40
2022/04/29 03:51:49;;;;;;;6.23;3.10;;;10.60;53.20;;;;;;5086489;28;20201;-42
2022/04/29 03:54:17;;;;;;;5.83;3.17;;;10.60;53.30;;;;;;5082278;28;20660;-41
2022/04/29 03:56:52;;;;;;;4.73;3.20;;;10.60;53.40;;;;;;5083004;28;20311;-40
2022/04/29 03:59:20;;;;;;;5.63;3.33;;;10.60;53.50;;;;;;5080100;28;20211;-42
2022/04/29 04:01:48;;;;;;;4.23;2.63;;;10.60;53.50;;;;;;5087014;28;20245;-41
2022/04/29 04:04:16;;;;;;;6.10;2.87;;;10.60;53.60;;;;;;5086020;28;20225;-41
2022/04/29 04:06:53;;;;;;;4.17;2.87;;;10.50;53.70;;;;;;5090249;28;20227;-42
2022/04/29 04:09:27;;;;;;;11.00;4.20;;;10.60;53.80;;;;;;5080670;28;20198;-40
2022/04/29 04:12:04;;;;;;;5.20;3.40;;;10.60;53.90;;;;;;5084177;28;20231;-45
2022/04/29 04:15:01;;;;;;;6.63;4.00;;;10.50;53.90;;;;;;5049130;28;20219;-39
2022/04/29 04:17:31;;;;;;;6.03;3.37;;;10.60;54.00;;;;;;5077677;28;20629;-45
2022/04/29 04:19:59;;;;;;;3.97;3.47;;;10.60;54.10;;;;;;5073607;28;20788;-45
2022/04/29 04:22:27;;;;;;;7.47;3.43;;;10.60;54.10;;;;;;5087817;28;20291;-38
2022/04/29 04:24:58;;;;;;;9.47;4.33;;;10.60;54.20;;;;;;5077633;28;20229;-40
2022/04/29 04:27:26;;;;;;;11.23;5.30;;;10.60;54.20;;;;;;5088160;28;20566;-39
2022/04/29 04:29:55;;;;;;;6.17;4.13;;;10.70;54.30;;;;;;5078790;28;20205;-39
2022/04/29 04:32:22;;;;;;;8.90;4.80;;;10.70;54.10;;;;;;5088595;28;20602;-40
2022/04/29 04:34:53;;;;;;;6.43;4.20;;;10.70;54.10;;;;;;5078020;28;20209;-39
2022/04/29 04:37:21;;;;;;;9.47;4.97;;;10.80;54.10;;;;;;5087363;28;20521;-41
2022/04/29 04:39:53;;;;;;;9.43;5.23;;;10.90;54.20;;;;;;5102059;28;20207;-41
2022/04/29 04:42:23;;;;;;;11.83;5.67;;;10.90;54.20;;;;;;5087586;28;20675;-40
2022/04/29 04:44:54;;;;;;;12.40;5.60;;;10.90;54.20;;;;;;5084874;28;20199;-39
2022/04/29 04:47:23;;;;;;;10.50;5.20;;;10.90;54.40;;;;;;5084184;28;20220;-35
2022/04/29 04:50:13;;;;;;;8.37;4.60;;;10.90;54.50;;;;;;5075531;28;20288;-35
2022/04/29 04:52:44;;;;;;;9.00;4.73;;;10.90;54.50;;;;;;5085847;28;20213;-34
2022/04/29 04:55:12;;;;;;;8.80;4.60;;;11.00;54.60;;;;;;5085805;28;21265;-35
2022/04/29 04:57:42;;;;;;;12.17;5.27;;;11.00;54.70;;;;;;5096873;28;20203;-34
2022/04/29 05:00:11;;;;;;;14.30;6.33;;;11.10;55.00;;;;;;5093736;28;20835;-35
2022/04/29 05:03:06;;;;;;;14.23;6.43;;;11.20;55.10;;;;;;5079704;28;20264;-35
2022/04/29 05:06:08;;;;;;;15.17;6.70;;;11.30;55.30;;;;;;5022067;28;20212;-35
2022/04/29 05:08:36;;;;;;;15.73;6.57;;;11.30;55.50;;;;;;5066239;28;20214;-35
2022/04/29 05:11:03;;;;;;;11.53;6.23;;;11.30;55.60;;;;;;5070284;28;20714;-35
2022/04/29 05:13:32;;;;;;;12.03;5.77;;;11.40;55.80;;;;;;5074397;28;20989;-35
2022/04/29 05:15:59;;;;;;;12.73;6.97;;;11.40;55.90;;;;;;5084930;28;20195;-35
2022/04/29 05:18:33;;;;;;;9.03;5.40;;;11.50;56.30;;;;;;5083407;28;20735;-36
2022/04/29 05:21:10;;;;;;;6.97;4.70;;;11.50;56.40;;;;;;5086045;28;21000;-36
2022/04/29 05:23:37;;;;;;;9.17;4.73;;;11.60;56.70;;;;;;5086580;28;20218;-36
2022/04/29 05:26:23;;;;;;;5.33;4.17;;;11.60;56.80;;;;;;5092031;28;20693;-36
2022/04/29 05:29:14;;;;;;;7.17;4.30;;;11.70;57.10;;;;;;5070288;28;20224;-35
2022/04/29 05:32:00;;;;;;;6.47;4.20;;;11.80;57.20;;;;;;5092018;28;20211;-34
2022/04/29 05:34:53;;;;;;;7.77;3.97;;;11.90;57.50;;;;;;5065923;28;20206;-35
2022/04/29 05:37:40;;;;;;;5.93;3.73;;;11.90;58.00;;;;;;5087187;28;20198;-36
2022/04/29 05:43:00;;;;;;;4.93;3.30;;;12.00;58.40;;;;;;5086147;28;20543;-37
2022/04/29 05:45:29;;;;;;;3.40;2.40;;;12.10;58.60;;;;;;5087989;28;20666;-35
2022/04/29 05:47:56;;;;;;;6.30;2.53;;;12.30;58.80;;;;;;5107203;28;20281;-36
2022/04/29 05:50:25;;;;;;;3.37;2.50;;;12.30;58.90;;;;;;5088421;28;20611;-35
2022/04/29 05:52:52;;;;;;;3.97;2.90;;;12.40;59.10;;;;;;5093746;28;20201;-34
2022/04/29 05:55:20;;;;;;;4.80;2.80;;;12.40;59.20;;;;;;5100110;28;20611;-35
2022/04/29 05:57:48;;;;;;;4.57;2.97;;;12.50;59.50;;;;;;5073497;28;21037;-35
2022/04/29 06:00:16;;;;;;;4.57;2.83;;;12.50;59.80;;;;;;5073426;28;20208;-35
2022/04/29 06:02:50;;;;;;;2.90;2.40;;;12.60;59.80;;;;;;5071806;28;20205;-35
2022/04/29 06:05:20;;;;;;;3.47;2.20;;;12.70;59.80;;;;;;5084069;28;20249;-34
2022/04/29 06:07:48;;;;;;;2.43;1.97;;;12.70;59.70;;;;;;5088810;28;20274;-35
2022/04/29 06:10:36;;;;;;;2.60;2.20;;;12.80;59.70;;;;;;5084154;28;20304;-34
2022/04/29 06:13:03;;;;;;;2.60;1.97;;;12.90;59.80;;;;;;5090831;28;20284;-35
2022/04/29 06:15:33;;;;;;;2.10;1.80;;;13.00;59.80;;;;;;5088556;28;20215;-36
2022/04/29 06:18:37;;;;;;;2.63;2.30;;;13.10;59.80;;;;;;5087346;28;20645;-36
2022/04/29 06:21:21;;;;;;;4.03;2.60;;;13.10;59.70;;;;;;5088145;28;20205;-35
2022/04/29 06:23:54;;;;;;;5.77;2.60;;;13.20;59.80;;;;;;5088691;28;20274;-35
2022/04/29 06:26:21;;;;;;;2.93;2.50;;;13.30;59.80;;;;;;5093824;28;20200;-35
2022/04/29 06:28:49;;;;;;;2.83;2.17;;;13.40;59.70;;;;;;5089615;28;20210;-34
2022/04/29 06:31:16;;;;;;;2.43;2.23;;;13.50;59.70;;;;;;5089716;28;20614;-37
2022/04/29 06:34:10;;;;;;;2.87;1.87;;;13.60;59.70;;;;;;5069008;28;20293;-34
2022/04/29 06:36:38;;;;;;;2.00;1.57;;;13.70;59.60;;;;;;5073147;28;20201;-36
2022/04/29 06:39:07;;;;;;;4.27;2.27;;;13.80;59.60;;;;;;5079746;28;20274;-35
2022/04/29 06:42:12;;;;;;;2.30;2.10;;;13.80;59.50;;;;;;5004417;28;20608;-36
2022/04/29 06:45:06;;;;;;;1.70;1.60;;;13.90;59.50;;;;;;5005573;28;20252;-36
2022/04/29 06:48:09;;;;;;;2.83;2.27;;;13.90;59.30;;;;;;5017109;28;20295;-35
2022/04/29 06:51:00;;;;;;;4.13;3.07;;;14.00;59.20;;;;;;5062672;28;20194;-35
2022/04/29 06:53:46;;;;;;;6.60;3.70;;;14.10;59.40;;;;;;5084382;28;20197;-35
2022/04/29 06:56:16;;;;;;;7.63;4.20;;;14.20;59.50;;;;;;5088813;28;20463;-36
2022/04/29 06:58:44;;;;;;;3.83;3.00;;;14.30;59.50;;;;;;5090941;28;20530;-37
2022/04/29 07:01:12;;;;;;;4.43;2.77;;;14.40;59.40;;;;;;5088914;28;20229;-36
2022/04/29 07:03:40;;;;;;;7.03;3.63;;;14.50;59.40;;;;;;5099627;28;20201;-35
2022/04/29 07:06:09;;;;;;;3.00;2.70;;;14.60;59.40;;;;;;5089015;28;20201;-35
2022/04/29 07:08:37;;;;;;;3.93;2.53;;;14.70;59.30;;;;;;5089806;28;20736;-36
2022/04/29 07:11:25;;;;;;;2.57;2.37;;;14.80;59.20;;;;;;5090396;28;20206;-36
2022/04/29 07:13:59;;;;;;;8.20;3.87;;;14.90;59.20;;;;;;5092020;28;20216;-36
2022/04/29 07:16:30;;;;;;;4.37;3.00;;;15.00;59.20;;;;;;5081715;28;20244;-35
2022/04/29 07:19:00;;;;;;;12.67;4.77;;;15.00;59.20;;;;;;5088954;28;20202;-35
2022/04/29 07:21:29;;;;;;;8.10;4.97;;;15.10;59.60;;;;;;5088007;28;20258;-35
2022/04/29 07:23:59;;;;;;;7.73;4.40;;;15.10;59.70;;;;;;5104010;28;20202;-34
2022/04/29 07:26:31;;;;;;;4.73;3.50;;;15.10;59.70;;;;;;5105306;28;20294;-35
2022/04/29 07:28:59;;;;;;;11.67;4.83;;;15.20;59.70;;;;;;5088731;28;20219;-37
2022/04/29 07:31:31;;;;;;;6.90;4.60;;;15.30;59.80;;;;;;5075987;28;20205;-35
2022/04/29 07:43:00;;;;;;;13.00;5.50;;;15.50;59.50;;;;;;5089697;28;20690;-35
2022/04/29 07:45:29;;;;;;;10.27;6.00;;;15.60;59.40;;;;;;5088454;28;20588;-35
2022/04/29 07:48:28;;;;;;;5.87;3.90;;;15.70;59.40;;;;;;5064106;28;20290;-35
2022/04/29 07:50:59;;;;;;;3.40;3.10;;;15.70;59.40;;;;;;5086430;28;20208;-36
2022/04/29 07:53:28;;;;;;;3.13;2.80;;;15.80;59.50;;;;;;5087833;28;20295;-35
2022/04/29 07:55:55;;;;;;;4.80;2.30;;;15.90;59.50;;;;;;5104193;28;20367;-34
2022/04/29 07:58:22;;;;;;;4.60;3.47;;;15.90;59.40;;;;;;5089794;28;20196;-35
2022/04/29 08:00:50;;;;;;;8.60;4.50;;;16.00;59.40;;;;;;5087195;28;20303;-34
2022/04/29 08:03:17;;;;;;;7.07;4.80;;;16.10;58.90;;;;;;5091465;28;20207;-35
2022/04/29 08:05:58;;;;;;;8.27;4.47;;;16.20;58.70;;;;;;5083619;28;20646;-35
2022/04/29 08:08:27;;;;;;;6.80;4.17;;;16.20;58.60;;;;;;5083278;28;20219;-35
2022/04/29 08:10:54;;;;;;;6.60;3.30;;;16.30;58.50;;;;;;5084278;28;20601;-36
2022/04/29 08:13:22;;;;;;;7.70;3.07;;;16.40;58.60;;;;;;5083519;28;20199;-35
2022/04/29 08:16:30;;;;;;;4.33;2.00;;;16.40;58.50;;;;;;5064800;28;20918;-35
2022/04/29 08:19:30;;;;;;;2.10;1.90;;;16.50;58.40;;;;;;5072153;28;20457;-35
2022/04/29 08:22:22;;;;;;;6.37;3.80;;;16.60;58.40;;;;;;5069675;28;20220;-35
2022/04/29 08:24:52;;;;;;;6.53;3.50;;;16.70;58.10;;;;;;5073424;28;20765;-35
2022/04/29 08:27:21;;;;;;;4.20;3.50;;;16.80;57.70;;;;;;5097112;28;20729;-35
2022/04/29 08:29:49;;;;;;;6.87;3.13;;;16.80;57.60;;;;;;5081275;28;20230;-35
2022/04/29 08:32:16;;;;;;;9.37;3.90;;;16.90;57.60;;;;;;5086471;28;20203;-35
2022/04/29 08:34:45;;;;;;;5.13;3.77;;;17.00;57.50;;;;;;5085065;28;20208;-36
2022/04/29 08:37:13;;;;;;;4.43;2.97;;;17.10;57.10;;;;;;5088973;28;20208;-35
2022/04/29 08:39:47;;;;;;;3.43;2.23;;;17.10;57.10;;;;;;5082565;28;20199;-35
2022/04/29 08:42:20;;;;;;;5.07;1.90;;;17.30;57.20;;;;;;5085205;28;20285;-35
2022/04/29 08:44:51;;;;;;;9.50;3.83;;;17.30;57.00;;;;;;5084087;28;20192;-35
2022/04/29 08:47:36;;;;;;;8.13;3.43;;;17.40;56.10;;;;;;5081649;28;20651;-34
2022/04/29 08:50:14;;;;;;;6.80;2.50;;;17.40;54.90;;;;;;5085488;28;20675;-35
2022/04/29 08:52:42;;;;;;;2.90;2.17;;;17.40;55.20;;;;;;5087206;28;20231;-36
2022/04/29 09:00:41;;;;;;;1.40;1.30;;;17.70;55.50;;;;;;5084189;28;20271;-35
2022/04/29 09:03:13;;;;;;;3.83;1.40;;;17.90;55.50;;;;;;5092645;28;20203;-35
2022/04/29 09:05:40;;;;;;;2.43;1.10;;;17.90;55.30;;;;;;5090187;28;20216;-35
2022/04/29 09:08:08;;;;;;;1.60;1.10;;;18.10;55.10;;;;;;5092708;28;20198;-35
2022/04/29 09:10:38;;;;;;;1.40;1.10;;;18.20;54.80;;;;;;5088745;28;20216;-35
2022/04/29 09:13:14;;;;;;;2.30;1.60;;;18.30;54.60;;;;;;5084152;28;20197;-36
2022/04/29 09:15:49;;;;;;;4.27;1.90;;;18.40;54.40;;;;;;5089665;28;20192;-35
2022/04/29 09:18:29;;;;;;;4.47;1.60;;;18.50;54.10;;;;;;5087883;28;20196;-35
2022/04/29 09:20:56;;;;;;;2.57;1.20;;;18.60;53.80;;;;;;5078771;28;20280;-35
2022/04/29 09:23:27;;;;;;;1.60;1.20;;;18.70;53.60;;;;;;5092279;28;20204;-36
2022/04/29 09:26:25;;;;;;;0.93;0.93;;;18.80;53.40;;;;;;5076353;28;20360;-35
2022/04/29 09:29:19;;;;;;;1.50;1.00;;;18.90;53.20;;;;;;5062815;28;20736;-35
2022/04/29 09:32:11;;;;;;;5.33;1.97;;;19.10;53.20;;;;;;5060379;28;20197;-36
2022/04/29 09:34:58;;;;;;;1.43;1.20;;;19.10;51.50;;;;;;5090194;28;20561;-35
2022/04/29 09:37:27;;;;;;;1.60;1.50;;;19.20;51.50;;;;;;5091288;28;20215;-36
2022/04/29 09:39:53;;;;;;;2.00;1.40;;;19.40;51.40;;;;;;5092069;28;20233;-36
2022/04/29 09:42:21;;;;;;;3.27;1.83;;;19.50;51.20;;;;;;5091663;28;20194;-36
2022/04/29 09:44:50;;;;;;;8.30;1.80;;;19.60;50.20;;;;;;5089998;28;20306;-36
2022/04/29 09:47:19;;;;;;;2.28;1.63;;;19.60;49.80;;;;;;5072535;28;20204;-36
2022/04/29 09:49:54;;;;;;;4.03;1.95;;;19.70;49.80;;;;;;5084731;28;20606;-35
2022/04/29 09:52:22;;;;;;;6.40;2.30;;;19.60;49.70;;;;;;5092410;28;20199;-36
2022/04/29 09:54:50;;;;;;;2.95;2.17;;;19.40;50.00;;;;;;5090957;28;20193;-35
2022/04/29 09:57:19;;;;;;;6.70;2.55;;;19.20;50.20;;;;;;5090295;28;20254;-35
2022/04/29 09:59:47;;;;;;;3.80;2.00;;;19.00;50.50;;;;;;5090232;28;20264;-35
2022/04/29 10:02:17;;;;;;;2.65;1.70;;;18.80;50.70;;;;;;5079038;28;20230;-35
2022/04/29 10:04:49;;;;;;;1.60;1.50;;;18.70;51.20;;;;;;5088045;28;20198;-35
2022/04/29 10:07:18;;;;;;;3.03;1.63;;;18.60;51.50;;;;;;5107310;28;20301;-35
2022/04/29 10:09:47;;;;;;;2.58;1.90;;;18.50;51.80;;;;;;5089070;28;20241;-35
2022/04/29 10:12:16;;;;;;;2.73;2.20;;;18.50;52.10;;;;;;5091943;28;20206;-35
2022/04/29 10:14:49;;;;;;;4.90;2.72;;;18.50;52.50;;;;;;5098587;28;20567;-36
2022/04/29 10:23:10;;;;;;;2.40;1.90;;;18.50;53.00;;;;;;5086459;28;20299;-34
2022/04/29 10:25:41;;;;;;;4.53;2.80;;;18.50;53.20;;;;;;5084387;28;20216;-36
2022/04/29 10:28:09;;;;;;;2.90;2.37;;;18.40;53.40;;;;;;5080151;28;20182;-36
2022/04/29 10:30:37;;;;;;;1.80;1.67;;;18.30;53.60;;;;;;5080929;28;20216;-36
2022/04/29 10:33:08;;;;;;;2.70;1.98;;;18.30;53.90;;;;;;5086226;28;20199;-36
2022/04/29 10:35:54;;;;;;;3.93;3.43;;;18.20;54.10;;;;;;5085099;28;20187;-36
2022/04/29 10:38:26;;;;;;;3.73;2.70;;;18.10;54.50;;;;;;5090531;28;20191;-35
2022/04/29 10:41:13;;;;;;;7.93;3.10;;;18.00;54.60;;;;;;5094466;28;20205;-35
2022/04/29 10:43:44;;;;;;;4.77;3.07;;;17.90;55.10;;;;;;5088175;28;20200;-35
2022/04/29 10:46:22;;;;;;;3.10;2.63;;;17.90;55.50;;;;;;5091011;28;20188;-36
2022/04/29 10:49:30;;;;;;;4.13;2.40;;;17.80;55.60;;;;;;5045222;28;20823;-35
2022/04/29 10:52:30;;;;;;;5.03;2.90;;;17.90;55.90;;;;;;5037700;28;20268;-35
2022/04/29 10:55:08;;;;;;;4.00;2.30;;;18.00;56.10;;;;;;5090124;28;20334;-35
2022/04/29 10:58:02;;;;;;;2.33;2.10;;;18.10;56.20;;;;;;5050199;28;20233;-34
2022/04/29 11:00:30;;;;;;;13.20;4.37;;;18.20;56.10;;;;;;5046588;28;20221;-35
2022/04/29 11:03:36;;;;;;;6.30;3.83;;;18.30;56.60;;;;;;5059783;28;20199;-35
2022/04/29 11:06:13;;;;;;;6.33;4.10;;;18.30;56.80;;;;;;5059041;28;20213;-35
2022/04/29 11:08:41;;;;;;;7.03;3.97;;;18.30;57.00;;;;;;5065751;28;20194;-34
2022/04/29 11:11:09;;;;;;;4.20;3.20;;;18.10;57.20;;;;;;5064280;28;20219;-34
2022/04/29 11:14:00;;;;;;;10.97;5.20;;;18.00;57.30;;;;;;5069237;28;20206;-35
2022/04/29 11:16:52;;;;;;;6.50;4.37;;;17.90;57.90;;;;;;5070752;28;20569;-36
2022/04/29 11:19:45;;;;;;;11.03;4.17;;;17.70;58.40;;;;;;5068179;28;20216;-36
2022/04/29 11:25:03;;;;;;;4.20;3.20;;;17.30;58.70;;;;;;5069404;28;20268;-35
2022/04/29 11:27:38;;;;;;;4.13;2.70;;;17.20;58.90;;;;;;5051644;28;20305;-35
2022/04/29 11:30:10;;;;;;;8.37;3.27;;;17.10;58.90;;;;;;5068461;28;20218;-36
2022/04/29 11:32:58;;;;;;;12.37;3.90;;;17.10;59.10;;;;;;5067324;28;20212;-35
2022/04/29 11:35:27;;;;;;;7.67;3.93;;;17.00;59.30;;;;;;5047275;28;20297;-35
2022/04/29 11:37:57;;;;;;;4.97;3.40;;;17.00;59.60;;;;;;5067229;28;20197;-34
2022/04/29 11:40:27;;;;;;;4.57;3.20;;;16.90;59.80;;;;;;5068720;28;20185;-35
2022/04/29 11:42:54;;;;;;;9.57;4.20;;;16.90;60.00;;;;;;5069772;28;20204;-35
2022/04/29 11:45:23;;;;;;;3.93;2.63;;;17.00;60.40;;;;;;5069454;28;20189;-35
2022/04/29 11:47:50;;;;;;;9.10;3.63;;;17.10;60.30;;;;;;5064448;28;20211;-35
2022/04/29 11:50:30;;;;;;;5.63;3.07;;;17.30;60.60;;;;;;5067874;28;20210;-35
2022/04/29 11:53:06;;;;;;;8.97;5.03;;;17.40;60.20;;;;;;5065795;28;20217;-34
2022/04/29 11:55:34;;;;;;;7.63;3.83;;;17.40;60.10;;;;;;5070456;28;20668;-36
2022/04/29 11:58:02;;;;;;;5.60;4.10;;;17.40;60.20;;;;;;5089233;28;20547;-36
2022/04/29 12:00:33;;;;;;;5.53;3.50;;;17.40;60.30;;;;;;5089753;28;20212;-35
2022/04/29 12:03:01;;;;;;;5.97;3.37;;;17.40;60.20;;;;;;5088564;28;20196;-35
2022/04/29 12:05:30;;;;;;;5.67;3.83;;;17.40;60.20;;;;;;5078946;28;20201;-35
2022/04/29 12:08:01;;;;;;;4.17;3.13;;;17.50;60.20;;;;;;5089157;28;20216;-34
2022/04/29 12:10:59;;;;;;;13.13;3.63;;;17.60;60.00;;;;;;5076744;28;20216;-35
2022/04/29 12:13:27;;;;;;;7.63;4.07;;;17.80;59.80;;;;;;5079148;28;20200;-35
2022/04/29 12:15:56;;;;;;;4.07;2.97;;;17.90;59.60;;;;;;5083844;28;20371;-35
2022/04/29 12:18:41;;;;;;;5.70;3.07;;;18.00;59.30;;;;;;5082225;28;20843;-35
2022/04/29 12:21:09;;;;;;;3.37;2.30;;;18.10;59.10;;;;;;5076151;28;20265;-36
2022/04/29 12:23:38;;;;;;;3.80;2.30;;;18.20;59.00;;;;;;5087472;28;20291;-36
2022/04/29 12:26:07;;;;;;;4.90;2.87;;;18.10;58.80;;;;;;5089280;28;20201;-35
2022/04/29 12:28:37;;;;;;;4.10;2.70;;;18.20;58.60;;;;;;5089033;28;20192;-34
2022/04/29 12:36:52;;;;;;;6.90;3.00;;;17.90;58.80;;;;;;5089725;28;20216;-35
2022/04/29 12:39:25;;;;;;;3.13;2.27;;;17.70;58.90;;;;;;5083271;28;20213;-35
2022/04/29 12:42:01;;;;;;;1.93;1.73;;;17.70;59.10;;;;;;5076795;28;20286;-35
2022/04/29 12:47:32;;;;;;;3.40;1.60;;;17.70;59.20;;;;;;5089780;28;20269;-34
2022/04/29 12:50:23;;;;;;;2.67;2.47;;;17.90;59.00;;;;;;5086454;28;20209;-35
2022/04/29 12:52:57;;;;;;;3.57;2.17;;;18.00;58.80;;;;;;5086930;28;20240;-46
2022/04/29 12:55:24;;;;;;;6.07;2.40;;;18.20;58.70;;;;;;5078857;28;20194;-53
2022/04/29 12:58:01;;;;;;;8.27;2.47;;;18.30;58.50;;;;;;5088688;28;20193;-52
2022/04/29 13:00:29;;;;;;;3.67;2.00;;;18.50;58.50;;;;;;5088723;28;20231;-51
2022/04/29 13:03:00;;;;;;;4.77;2.70;;;18.50;58.30;;;;;;5079653;28;20215;-54
2022/04/29 13:05:28;;;;;;;3.33;2.30;;;18.50;58.20;;;;;;5080216;28;20252;-48
2022/04/29 13:07:57;;;;;;;4.17;2.30;;;18.50;58.30;;;;;;5097491;28;20729;-53
2022/04/29 13:10:25;;;;;;;5.10;3.57;;;18.50;58.30;;;;;;5081339;28;20206;-53
2022/04/29 13:12:55;;;;;;;6.83;3.90;;;18.40;58.40;;;;;;5087734;28;20214;-51
2022/04/29 13:15:29;;;;;;;4.57;3.10;;;18.40;58.60;;;;;;5088828;28;20292;-52
2022/04/29 13:17:59;;;;;;;5.10;3.50;;;18.30;58.80;;;;;;5079257;28;20205;-48
2022/04/29 13:20:27;;;;;;;4.53;3.17;;;18.30;58.90;;;;;;5086929;28;20199;-48
2022/04/29 13:22:54;;;;;;;4.60;2.47;;;18.20;59.00;;;;;;5087156;28;20225;-49
2022/04/29 13:25:23;;;;;;;4.93;3.07;;;18.20;59.10;;;;;;5076195;28;20209;-49
2022/04/29 13:27:50;;;;;;;6.95;2.65;;;18.20;58.80;;;;;;5092851;28;20793;-51
2022/04/29 13:30:18;;;;;;;5.10;3.10;;;18.20;58.20;;;;;;5085253;28;20295;-51
2022/04/29 13:32:46;;;;;;;3.77;2.83;;;18.10;57.50;;;;;;5084824;28;20217;-52
2022/04/29 13:35:15;;;;;;;8.80;3.47;;;18.00;57.50;;;;;;5084313;28;20200;-47
2022/04/29 13:37:42;;;;;;;2.20;1.97;;;18.00;57.50;;;;;;5090970;28;20227;-52
2022/04/29 13:40:10;;;;;;;3.40;2.83;;;17.90;57.70;;;;;;5086877;28;20192;-48
2022/04/29 13:42:37;;;;;;;2.37;2.17;;;17.90;57.90;;;;;;5088084;28;20201;-53
2022/04/29 13:45:10;;;;;;;2.93;2.60;;;18.00;57.90;;;;;;5090425;28;20202;-48
2022/04/29 13:47:39;;;;;;;3.77;2.43;;;18.00;57.40;;;;;;5084030;28;20204;-45
2022/04/29 13:50:08;;;;;;;4.63;2.90;;;18.00;57.30;;;;;;5090102;28;20213;-47
2022/04/29 13:55:21;;;;;;;4.57;3.03;;;18.00;57.20;;;;;;5090340;28;20196;-45
2022/04/29 13:57:48;;;;;;;6.83;3.10;;;18.00;57.30;;;;;;5091825;28;20262;-49